sensor_id;sensor_type;location;lat;lon;timestamp;pressure;altitude;pressure_sealevel;temperature;humidity
72892;BME280;61032;50.782;6.818;2023-09-19T00:00:08;99881.88;;;17.15;70.14
72892;BME280;61032;50.782;6.818;2023-09-19T00:01:08;99871.16;;;17.14;70.25
72892;BME280;61032;50.782;6.818;2023-09-19T00:02:09;99880.31;;;17.18;69.78
72892;BME280;61032;50.782;6.818;2023-09-19T00:03:10;99881.50;;;17.17;69.93
72892;BME280;61032;50.782;6.818;2023-09-19T00:04:11;99881.06;;;17.11;69.88
72892;BME280;61032;50.782;6.818;2023-09-19T00:05:13;99883.06;;;17.14;69.56
72892;BME280;61032;50.782;6.818;2023-09-19T00:06:14;99881.75;;;16.94;70.09
72892;BME280;61032;50.782;6.818;2023-09-19T00:07:15;99878.94;;;16.87;70.36
72892;BME280;61032;50.782;6.818;2023-09-19T00:08:16;99887.66;;;16.82;70.59
72892;BME280;61032;50.782;6.818;2023-09-19T00:09:16;99886.47;;;16.87;70.80
72892;BME280;61032;50.782;6.818;2023-09-19T00:10:17;99902.00;;;16.95;70.89
72892;BME280;61032;50.782;6.818;2023-09-19T00:11:17;99892.03;;;16.87;70.61
72892;BME280;61032;50.782;6.818;2023-09-19T00:12:17;99896.00;;;16.82;70.66
72892;BME280;61032;50.782;6.818;2023-09-19T00:13:18;99890.47;;;16.89;70.86
72892;BME280;61032;50.782;6.818;2023-09-19T00:14:19;99893.66;;;16.95;70.71
72892;BME280;61032;50.782;6.818;2023-09-19T00:15:19;99886.97;;;16.99;70.66
72892;BME280;61032;50.782;6.818;2023-09-19T00:16:20;99884.59;;;17.05;70.76
72892;BME280;61032;50.782;6.818;2023-09-19T00:17:20;99894.16;;;17.11;70.05
72892;BME280;61032;50.782;6.818;2023-09-19T00:18:21;99891.78;;;17.13;69.83
72892;BME280;61032;50.782;6.818;2023-09-19T00:19:21;99893.38;;;17.14;69.89
72892;BME280;61032;50.782;6.818;2023-09-19T00:20:24;99895.34;;;17.10;70.06
72892;BME280;61032;50.782;6.818;2023-09-19T00:21:24;99890.19;;;17.12;70.34
72892;BME280;61032;50.782;6.818;2023-09-19T00:22:24;99889.81;;;17.13;70.26
72892;BME280;61032;50.782;6.818;2023-09-19T00:23:27;99889.03;;;17.16;69.99
72892;BME280;61032;50.782;6.818;2023-09-19T00:24:28;99890.56;;;17.10;69.90
72892;BME280;61032;50.782;6.818;2023-09-19T00:25:28;99894.13;;;17.07;70.05
72892;BME280;61032;50.782;6.818;2023-09-19T00:26:28;99892.56;;;17.10;70.29
72892;BME280;61032;50.782;6.818;2023-09-19T00:27:30;99889.81;;;17.13;70.02
72892;BME280;61032;50.782;6.818;2023-09-19T00:28:31;99893.75;;;17.12;69.99
72892;BME280;61032;50.782;6.818;2023-09-19T00:29:31;99887.78;;;17.07;70.04
72892;BME280;61032;50.782;6.818;2023-09-19T00:30:33;99884.22;;;17.10;70.55
72892;BME280;61032;50.782;6.818;2023-09-19T00:31:34;99896.16;;;17.14;70.12
72892;BME280;61032;50.782;6.818;2023-09-19T00:32:37;99900.91;;;17.13;70.27
72892;BME280;61032;50.782;6.818;2023-09-19T00:33:37;99903.69;;;17.13;70.37
72892;BME280;61032;50.782;6.818;2023-09-19T00:34:38;99895.72;;;17.08;70.25
72892;BME280;61032;50.782;6.818;2023-09-19T00:35:38;99890.56;;;17.03;70.23
72892;BME280;61032;50.782;6.818;2023-09-19T00:36:39;99899.28;;;17.02;70.51
72892;BME280;61032;50.782;6.818;2023-09-19T00:37:39;99893.34;;;17.03;70.77
72892;BME280;61032;50.782;6.818;2023-09-19T00:38:39;99894.53;;;17.02;70.57
72892;BME280;61032;50.782;6.818;2023-09-19T00:39:40;99891.75;;;17.02;70.65
72892;BME280;61032;50.782;6.818;2023-09-19T00:40:44;99884.94;;;16.96;70.74
72892;BME280;61032;50.782;6.818;2023-09-19T00:41:44;99890.13;;;16.98;70.95
72892;BME280;61032;50.782;6.818;2023-09-19T00:42:46;99894.06;;;16.93;70.76
72892;BME280;61032;50.782;6.818;2023-09-19T00:43:47;99898.38;;;16.87;71.16
72892;BME280;61032;50.782;6.818;2023-09-19T00:44:51;99890.84;;;16.88;71.08
72892;BME280;61032;50.782;6.818;2023-09-19T00:45:52;99895.22;;;16.89;71.15
72892;BME280;61032;50.782;6.818;2023-09-19T00:46:53;99901.19;;;16.91;71.62
72892;BME280;61032;50.782;6.818;2023-09-19T00:47:54;99895.19;;;16.85;71.19
72892;BME280;61032;50.782;6.818;2023-09-19T00:48:54;99902.31;;;16.79;71.70
72892;BME280;61032;50.782;6.818;2023-09-19T00:49:55;99902.34;;;16.82;71.58
72892;BME280;61032;50.782;6.818;2023-09-19T00:50:57;99906.72;;;16.87;71.76
72892;BME280;61032;50.782;6.818;2023-09-19T00:51:59;99897.56;;;16.87;71.77
72892;BME280;61032;50.782;6.818;2023-09-19T00:52:59;99897.16;;;16.81;71.36
72892;BME280;61032;50.782;6.818;2023-09-19T00:54:00;99907.44;;;16.77;71.83
72892;BME280;61032;50.782;6.818;2023-09-19T00:55:02;99901.94;;;16.80;71.92
72892;BME280;61032;50.782;6.818;2023-09-19T00:56:03;99903.91;;;16.83;71.74
72892;BME280;61032;50.782;6.818;2023-09-19T00:57:08;99900.34;;;16.87;71.90
72892;BME280;61032;50.782;6.818;2023-09-19T00:58:08;99910.31;;;16.91;72.02
72892;BME280;61032;50.782;6.818;2023-09-19T00:59:10;99914.31;;;16.97;71.58
72892;BME280;61032;50.782;6.818;2023-09-19T01:00:12;99918.25;;;16.93;71.42
72892;BME280;61032;50.782;6.818;2023-09-19T01:01:15;99914.25;;;16.90;71.77
72892;BME280;61032;50.782;6.818;2023-09-19T01:02:17;99914.66;;;16.89;72.09
72892;BME280;61032;50.782;6.818;2023-09-19T01:03:18;99919.47;;;16.95;72.19
72892;BME280;61032;50.782;6.818;2023-09-19T01:04:18;99925.03;;;16.99;71.64
72892;BME280;61032;50.782;6.818;2023-09-19T01:05:19;99922.66;;;16.97;71.84
72892;BME280;61032;50.782;6.818;2023-09-19T01:06:20;99915.53;;;17.00;72.03
72892;BME280;61032;50.782;6.818;2023-09-19T01:07:20;99914.34;;;17.04;71.66
72892;BME280;61032;50.782;6.818;2023-09-19T01:08:22;99914.78;;;17.10;71.49
72892;BME280;61032;50.782;6.818;2023-09-19T01:09:23;99915.56;;;17.10;71.46
72892;BME280;61032;50.782;6.818;2023-09-19T01:10:23;99917.97;;;17.12;71.15
72892;BME280;61032;50.782;6.818;2023-09-19T01:11:33;99918.78;;;17.16;70.91
72892;BME280;61032;50.782;6.818;2023-09-19T01:13:58;99922.78;;;17.26;70.14
72892;BME280;61032;50.782;6.818;2023-09-19T01:15:14;99927.97;;;17.27;69.00
72892;BME280;61032;50.782;6.818;2023-09-19T01:16:38;99928.34;;;17.26;68.61
72892;BME280;61032;50.782;6.818;2023-09-19T01:17:46;99927.16;;;17.20;68.17
72892;BME280;61032;50.782;6.818;2023-09-19T01:20:29;99931.56;;;17.31;67.82
72892;BME280;61032;50.782;6.818;2023-09-19T01:23:21;99934.28;;;17.21;67.51
72892;BME280;61032;50.782;6.818;2023-09-19T01:29:34;99946.50;;;17.02;67.27
72892;BME280;61032;50.782;6.818;2023-09-19T01:30:43;99949.72;;;17.11;67.49
72892;BME280;61032;50.782;6.818;2023-09-19T01:31:44;99946.19;;;17.17;66.60
72892;BME280;61032;50.782;6.818;2023-09-19T01:32:45;99950.13;;;17.16;66.26
72892;BME280;61032;50.782;6.818;2023-09-19T01:33:58;99954.13;;;17.19;66.22
72892;BME280;61032;50.782;6.818;2023-09-19T01:34:59;99952.50;;;17.14;66.13
72892;BME280;61032;50.782;6.818;2023-09-19T01:36:05;99946.50;;;17.05;65.69
72892;BME280;61032;50.782;6.818;2023-09-19T01:37:05;99958.34;;;16.95;66.35
72892;BME280;61032;50.782;6.818;2023-09-19T01:38:06;99954.03;;;17.01;66.48
72892;BME280;61032;50.782;6.818;2023-09-19T01:39:12;99958.75;;;16.97;65.92
72892;BME280;61032;50.782;6.818;2023-09-19T01:40:17;99955.50;;;16.88;66.20
72892;BME280;61032;50.782;6.818;2023-09-19T01:41:26;99961.13;;;16.95;66.03
72892;BME280;61032;50.782;6.818;2023-09-19T01:43:41;99964.59;;;16.85;66.01
72892;BME280;61032;50.782;6.818;2023-09-19T01:44:55;99966.25;;;16.93;65.57
72892;BME280;61032;50.782;6.818;2023-09-19T01:46:16;99966.16;;;16.79;65.80
72892;BME280;61032;50.782;6.818;2023-09-19T01:50:41;99972.00;;;16.67;66.43
72892;BME280;61032;50.782;6.818;2023-09-19T01:52:57;99972.88;;;16.74;66.47
72892;BME280;61032;50.782;6.818;2023-09-19T01:54:03;99981.91;;;16.64;66.58
72892;BME280;61032;50.782;6.818;2023-09-19T01:55:09;99978.63;;;16.55;67.09
72892;BME280;61032;50.782;6.818;2023-09-19T01:56:17;99987.78;;;16.59;67.17
72892;BME280;61032;50.782;6.818;2023-09-19T01:57:29;99987.34;;;16.54;67.50
72892;BME280;61032;50.782;6.818;2023-09-19T01:58:42;99985.81;;;16.60;67.42
72892;BME280;61032;50.782;6.818;2023-09-19T01:59:49;99981.06;;;16.60;67.72
72892;BME280;61032;50.782;6.818;2023-09-19T02:00:53;99977.13;;;16.65;67.31
72892;BME280;61032;50.782;6.818;2023-09-19T02:01:55;99984.28;;;16.66;67.16
72892;BME280;61032;50.782;6.818;2023-09-19T02:02:56;99979.53;;;16.66;66.84
72892;BME280;61032;50.782;6.818;2023-09-19T02:03:58;99979.34;;;16.48;67.50
72892;BME280;61032;50.782;6.818;2023-09-19T02:04:59;99982.97;;;16.53;67.76
72892;BME280;61032;50.782;6.818;2023-09-19T02:05:59;99982.97;;;16.53;67.25
72892;BME280;61032;50.782;6.818;2023-09-19T02:07:00;99985.28;;;16.47;67.79
72892;BME280;61032;50.782;6.818;2023-09-19T02:08:01;99997.53;;;16.42;67.93
72892;BME280;61032;50.782;6.818;2023-09-19T02:09:01;99988.41;;;16.42;68.17
72892;BME280;61032;50.782;6.818;2023-09-19T02:10:03;99991.22;;;16.45;68.14
72892;BME280;61032;50.782;6.818;2023-09-19T02:11:05;99984.47;;;16.46;68.11
72892;BME280;61032;50.782;6.818;2023-09-19T02:12:06;99992.38;;;16.44;68.22
72892;BME280;61032;50.782;6.818;2023-09-19T02:13:07;99994.38;;;16.44;68.08
72892;BME280;61032;50.782;6.818;2023-09-19T02:14:07;99992.00;;;16.46;68.27
72892;BME280;61032;50.782;6.818;2023-09-19T02:15:08;99999.91;;;16.40;68.32
72892;BME280;61032;50.782;6.818;2023-09-19T02:16:09;100004.66;;;16.43;68.98
72892;BME280;61032;50.782;6.818;2023-09-19T02:17:11;99990.84;;;16.47;68.86
72892;BME280;61032;50.782;6.818;2023-09-19T02:18:13;99993.94;;;16.38;69.07
72892;BME280;61032;50.782;6.818;2023-09-19T02:19:14;99996.00;;;16.48;68.42
72892;BME280;61032;50.782;6.818;2023-09-19T02:20:14;100003.44;;;16.37;69.01
72892;BME280;61032;50.782;6.818;2023-09-19T02:21:15;99992.78;;;16.43;68.75
72892;BME280;61032;50.782;6.818;2023-09-19T02:22:17;99999.06;;;16.36;68.99
72892;BME280;61032;50.782;6.818;2023-09-19T02:23:17;99994.69;;;16.35;69.21
72892;BME280;61032;50.782;6.818;2023-09-19T02:24:18;99993.53;;;16.36;69.13
72892;BME280;61032;50.782;6.818;2023-09-19T02:25:19;99998.28;;;16.36;69.59
72892;BME280;61032;50.782;6.818;2023-09-19T02:26:19;99993.19;;;16.41;69.26
72892;BME280;61032;50.782;6.818;2023-09-19T02:27:20;99991.97;;;16.42;68.85
72892;BME280;61032;50.782;6.818;2023-09-19T02:28:20;99997.06;;;16.33;69.35
72892;BME280;61032;50.782;6.818;2023-09-19T02:29:22;99992.72;;;16.36;69.50
72892;BME280;61032;50.782;6.818;2023-09-19T02:30:22;99991.09;;;16.31;69.54
72892;BME280;61032;50.782;6.818;2023-09-19T02:31:25;99982.69;;;16.24;69.99
72892;BME280;61032;50.782;6.818;2023-09-19T02:32:25;99988.53;;;16.12;69.97
72892;BME280;61032;50.782;6.818;2023-09-19T02:33:25;99994.47;;;16.14;69.95
72892;BME280;61032;50.782;6.818;2023-09-19T02:34:26;99994.81;;;16.09;70.07
72892;BME280;61032;50.782;6.818;2023-09-19T02:35:28;99998.00;;;16.11;70.22
72892;BME280;61032;50.782;6.818;2023-09-19T02:36:28;99994.91;;;16.16;70.06
72892;BME280;61032;50.782;6.818;2023-09-19T02:37:31;99999.94;;;16.07;69.80
72892;BME280;61032;50.782;6.818;2023-09-19T02:38:32;100002.44;;;16.15;70.05
72892;BME280;61032;50.782;6.818;2023-09-19T02:39:32;99999.31;;;16.21;69.90
72892;BME280;61032;50.782;6.818;2023-09-19T02:40:33;100004.50;;;16.26;69.50
72892;BME280;61032;50.782;6.818;2023-09-19T02:41:35;100004.53;;;16.29;69.53
72892;BME280;61032;50.782;6.818;2023-09-19T02:42:36;100002.84;;;16.21;69.57
72892;BME280;61032;50.782;6.818;2023-09-19T02:43:36;100005.72;;;16.28;69.76
72892;BME280;61032;50.782;6.818;2023-09-19T02:44:37;100006.94;;;16.31;69.39
72892;BME280;61032;50.782;6.818;2023-09-19T02:45:38;100010.84;;;16.26;69.26
72892;BME280;61032;50.782;6.818;2023-09-19T02:46:39;100004.50;;;16.26;69.42
72892;BME280;61032;50.782;6.818;2023-09-19T02:47:42;100008.06;;;16.26;68.98
72892;BME280;61032;50.782;6.818;2023-09-19T02:48:43;100017.19;;;16.27;69.13
72892;BME280;61032;50.782;6.818;2023-09-19T02:49:43;100006.44;;;16.22;69.18
72892;BME280;61032;50.782;6.818;2023-09-19T02:50:44;100018.72;;;16.21;69.10
72892;BME280;61032;50.782;6.818;2023-09-19T02:51:44;100008.41;;;16.18;69.60
72892;BME280;61032;50.782;6.818;2023-09-19T02:52:46;100010.00;;;16.22;69.34
72892;BME280;61032;50.782;6.818;2023-09-19T02:53:50;100012.44;;;16.27;69.02
72892;BME280;61032;50.782;6.818;2023-09-19T02:54:52;100015.59;;;16.26;68.71
72892;BME280;61032;50.782;6.818;2023-09-19T02:55:52;100010.66;;;16.08;69.18
72892;BME280;61032;50.782;6.818;2023-09-19T02:56:53;100013.81;;;16.07;69.41
72892;BME280;61032;50.782;6.818;2023-09-19T02:57:54;100008.63;;;16.05;69.13
72892;BME280;61032;50.782;6.818;2023-09-19T02:58:57;100009.47;;;16.09;69.39
72892;BME280;61032;50.782;6.818;2023-09-19T02:59:58;100015.41;;;16.08;69.37
72892;BME280;61032;50.782;6.818;2023-09-19T03:00:58;100016.91;;;16.02;69.31
72892;BME280;61032;50.782;6.818;2023-09-19T03:01:59;100014.13;;;16.02;69.34
72892;BME280;61032;50.782;6.818;2023-09-19T03:03:00;100020.84;;;15.97;69.19
72892;BME280;61032;50.782;6.818;2023-09-19T03:04:02;100008.97;;;15.97;70.01
72892;BME280;61032;50.782;6.818;2023-09-19T03:05:03;100008.19;;;16.00;69.27
72892;BME280;61032;50.782;6.818;2023-09-19T03:06:03;100013.66;;;15.93;69.64
72892;BME280;61032;50.782;6.818;2023-09-19T03:07:04;100012.91;;;15.96;69.80
72892;BME280;61032;50.782;6.818;2023-09-19T03:08:04;100011.31;;;15.95;69.70
72892;BME280;61032;50.782;6.818;2023-09-19T03:09:05;100016.84;;;15.95;69.34
72892;BME280;61032;50.782;6.818;2023-09-19T03:10:11;100016.09;;;15.98;69.87
72892;BME280;61032;50.782;6.818;2023-09-19T03:11:12;100017.75;;;16.06;69.41
72892;BME280;61032;50.782;6.818;2023-09-19T03:12:15;100014.41;;;15.90;69.61
72892;BME280;61032;50.782;6.818;2023-09-19T03:13:16;100011.69;;;15.93;69.62
72892;BME280;61032;50.782;6.818;2023-09-19T03:14:17;100016.91;;;15.98;69.38
72892;BME280;61032;50.782;6.818;2023-09-19T03:15:20;100024.03;;;15.99;69.41
72892;BME280;61032;50.782;6.818;2023-09-19T03:16:22;100020.38;;;15.92;69.92
72892;BME280;61032;50.782;6.818;2023-09-19T03:17:22;100018.72;;;15.87;69.76
72892;BME280;61032;50.782;6.818;2023-09-19T03:18:22;100024.97;;;15.80;70.09
72892;BME280;61032;50.782;6.818;2023-09-19T03:19:23;100021.00;;;15.78;70.12
72892;BME280;61032;50.782;6.818;2023-09-19T03:20:24;100026.13;;;15.76;69.94
72892;BME280;61032;50.782;6.818;2023-09-19T03:21:25;100027.41;;;15.86;69.87
72892;BME280;61032;50.782;6.818;2023-09-19T03:22:29;100030.66;;;15.91;69.77
72892;BME280;61032;50.782;6.818;2023-09-19T03:23:29;100029.44;;;15.89;69.43
72892;BME280;61032;50.782;6.818;2023-09-19T03:24:30;100031.03;;;15.90;69.95
72892;BME280;61032;50.782;6.818;2023-09-19T03:25:34;100025.44;;;15.86;69.68
72892;BME280;61032;50.782;6.818;2023-09-19T03:26:35;100028.28;;;15.90;69.60
72892;BME280;61032;50.782;6.818;2023-09-19T03:27:36;100033.13;;;15.96;69.94
72892;BME280;61032;50.782;6.818;2023-09-19T03:28:36;100027.22;;;16.01;69.52
72892;BME280;61032;50.782;6.818;2023-09-19T03:29:37;100027.25;;;16.05;69.46
72892;BME280;61032;50.782;6.818;2023-09-19T03:30:38;100033.69;;;15.79;69.46
72892;BME280;61032;50.782;6.818;2023-09-19T03:31:39;100030.06;;;15.75;70.03
72892;BME280;61032;50.782;6.818;2023-09-19T03:32:46;100030.94;;;15.79;70.06
72892;BME280;61032;50.782;6.818;2023-09-19T03:33:49;100031.69;;;15.76;70.05
72892;BME280;61032;50.782;6.818;2023-09-19T03:34:50;100032.47;;;15.76;70.26
72892;BME280;61032;50.782;6.818;2023-09-19T03:35:53;100036.88;;;15.81;69.94
72892;BME280;61032;50.782;6.818;2023-09-19T03:36:54;100036.13;;;15.84;69.68
72892;BME280;61032;50.782;6.818;2023-09-19T03:37:55;100035.75;;;15.86;69.62
72892;BME280;61032;50.782;6.818;2023-09-19T03:38:56;100030.13;;;15.78;69.47
72892;BME280;61032;50.782;6.818;2023-09-19T03:39:56;100027.75;;;15.80;69.78
72892;BME280;61032;50.782;6.818;2023-09-19T03:40:57;100031.63;;;15.72;69.63
72892;BME280;61032;50.782;6.818;2023-09-19T03:41:57;100030.88;;;15.75;70.35
72892;BME280;61032;50.782;6.818;2023-09-19T03:43:00;100022.97;;;15.77;69.63
72892;BME280;61032;50.782;6.818;2023-09-19T03:44:01;100029.34;;;15.81;70.00
72892;BME280;61032;50.782;6.818;2023-09-19T03:45:01;100026.63;;;15.85;69.48
72892;BME280;61032;50.782;6.818;2023-09-19T03:46:05;100026.19;;;15.83;69.20
72892;BME280;61032;50.782;6.818;2023-09-19T03:47:07;100028.16;;;15.82;69.71
72892;BME280;61032;50.782;6.818;2023-09-19T03:48:11;100026.28;;;15.90;69.43
72892;BME280;61032;50.782;6.818;2023-09-19T03:49:12;100025.88;;;15.88;68.92
72892;BME280;61032;50.782;6.818;2023-09-19T03:50:12;100029.88;;;15.91;69.00
72892;BME280;61032;50.782;6.818;2023-09-19T03:51:15;100035.09;;;15.96;69.12
72892;BME280;61032;50.782;6.818;2023-09-19T03:52:15;100028.78;;;15.99;68.91
72892;BME280;61032;50.782;6.818;2023-09-19T03:53:16;100028.00;;;16.02;69.02
72892;BME280;61032;50.782;6.818;2023-09-19T03:54:16;100027.16;;;15.94;68.57
72892;BME280;61032;50.782;6.818;2023-09-19T03:55:19;100027.94;;;15.95;68.48
72892;BME280;61032;50.782;6.818;2023-09-19T03:56:19;100027.94;;;15.95;68.03
72892;BME280;61032;50.782;6.818;2023-09-19T03:57:20;100028.38;;;15.97;68.05
72892;BME280;61032;50.782;6.818;2023-09-19T03:58:20;100031.94;;;16.01;67.89
72892;BME280;61032;50.782;6.818;2023-09-19T03:59:21;100033.56;;;16.02;67.55
72892;BME280;61032;50.782;6.818;2023-09-19T04:00:22;100030.03;;;16.05;67.72
72892;BME280;61032;50.782;6.818;2023-09-19T04:01:24;100030.44;;;16.07;66.88
72892;BME280;61032;50.782;6.818;2023-09-19T04:02:24;100036.00;;;16.07;67.07
72892;BME280;61032;50.782;6.818;2023-09-19T04:03:25;100036.00;;;16.07;66.80
72892;BME280;61032;50.782;6.818;2023-09-19T04:04:34;100030.44;;;16.07;66.77
72892;BME280;61032;50.782;6.818;2023-09-19T04:05:34;100037.16;;;16.06;66.63
72892;BME280;61032;50.782;6.818;2023-09-19T04:06:35;100033.59;;;16.05;66.98
72892;BME280;61032;50.782;6.818;2023-09-19T04:07:36;100031.63;;;16.06;66.70
72892;BME280;61032;50.782;6.818;2023-09-19T04:08:36;100032.75;;;15.98;66.77
72892;BME280;61032;50.782;6.818;2023-09-19T04:09:36;100031.13;;;15.97;66.74
72892;BME280;61032;50.782;6.818;2023-09-19T04:10:37;100030.72;;;15.95;66.60
72892;BME280;61032;50.782;6.818;2023-09-19T04:11:37;100033.16;;;16.00;66.61
72892;BME280;61032;50.782;6.818;2023-09-19T04:12:37;100032.31;;;15.96;66.84
72892;BME280;61032;50.782;6.818;2023-09-19T04:13:41;100033.03;;;15.89;66.74
72892;BME280;61032;50.782;6.818;2023-09-19T04:14:41;100032.97;;;15.86;66.89
72892;BME280;61032;50.782;6.818;2023-09-19T04:15:41;100038.47;;;15.82;67.35
72892;BME280;61032;50.782;6.818;2023-09-19T04:16:42;100042.03;;;15.82;67.30
72892;BME280;61032;50.782;6.818;2023-09-19T04:17:42;100038.84;;;15.80;67.60
72892;BME280;61032;50.782;6.818;2023-09-19T04:18:42;100039.63;;;15.77;67.51
72892;BME280;61032;50.782;6.818;2023-09-19T04:19:43;100043.56;;;15.76;68.04
72892;BME280;61032;50.782;6.818;2023-09-19T04:20:52;100036.84;;;15.77;67.77
72892;BME280;61032;50.782;6.818;2023-09-19T04:21:52;100036.38;;;15.72;68.07
72892;BME280;61032;50.782;6.818;2023-09-19T04:22:52;100034.41;;;15.72;68.19
72892;BME280;61032;50.782;6.818;2023-09-19T04:23:53;100032.47;;;15.76;68.34
72892;BME280;61032;50.782;6.818;2023-09-19T04:24:53;100032.91;;;15.78;67.99
72892;BME280;61032;50.782;6.818;2023-09-19T04:25:54;100041.22;;;15.78;68.27
72892;BME280;61032;50.782;6.818;2023-09-19T04:26:54;100038.03;;;15.80;68.16
72892;BME280;61032;50.782;6.818;2023-09-19T04:27:54;100040.41;;;15.78;68.07
72892;BME280;61032;50.782;6.818;2023-09-19T04:28:55;100040.81;;;15.80;67.78
72892;BME280;61032;50.782;6.818;2023-09-19T04:29:56;100041.97;;;15.75;68.00
72892;BME280;61032;50.782;6.818;2023-09-19T04:30:59;100046.34;;;15.76;67.86
72892;BME280;61032;50.782;6.818;2023-09-19T04:31:59;100039.19;;;15.75;67.95
72892;BME280;61032;50.782;6.818;2023-09-19T04:32:59;100040.31;;;15.71;68.18
72892;BME280;61032;50.782;6.818;2023-09-19T04:34:02;100042.28;;;15.70;68.11
72892;BME280;61032;50.782;6.818;2023-09-19T04:35:04;100045.00;;;15.67;68.36
72892;BME280;61032;50.782;6.818;2023-09-19T04:36:06;100033.88;;;15.63;68.65
72892;BME280;61032;50.782;6.818;2023-09-19T04:37:07;100039.78;;;15.62;68.37
72892;BME280;61032;50.782;6.818;2023-09-19T04:38:08;100039.47;;;15.67;68.44
72892;BME280;61032;50.782;6.818;2023-09-19T04:39:09;100042.34;;;15.74;68.42
72892;BME280;61032;50.782;6.818;2023-09-19T04:40:12;100039.50;;;15.70;68.16
72892;BME280;61032;50.782;6.818;2023-09-19T04:41:14;100039.47;;;15.67;68.03
72892;BME280;61032;50.782;6.818;2023-09-19T04:42:15;100041.75;;;15.61;68.43
72892;BME280;61032;50.782;6.818;2023-09-19T04:43:15;100044.22;;;15.66;68.76
72892;BME280;61032;50.782;6.818;2023-09-19T04:44:16;100045.38;;;15.65;68.42
72892;BME280;61032;50.782;6.818;2023-09-19T04:45:16;100046.59;;;15.68;68.64
72892;BME280;61032;50.782;6.818;2023-09-19T04:46:17;100044.53;;;15.61;68.43
72892;BME280;61032;50.782;6.818;2023-09-19T04:47:17;100038.97;;;15.58;69.14
72892;BME280;61032;50.782;6.818;2023-09-19T04:48:18;100042.19;;;15.63;69.03
72892;BME280;61032;50.782;6.818;2023-09-19T04:49:19;100035.31;;;15.54;68.66
72892;BME280;61032;50.782;6.818;2023-09-19T04:50:20;100038.44;;;15.52;69.46
72892;BME280;61032;50.782;6.818;2023-09-19T04:51:26;100035.31;;;15.54;69.12
72892;BME280;61032;50.782;6.818;2023-09-19T04:52:30;100034.94;;;15.55;68.81
72892;BME280;61032;50.782;6.818;2023-09-19T04:53:31;100031.38;;;15.55;69.17
72892;BME280;61032;50.782;6.818;2023-09-19T04:54:31;100039.34;;;15.56;69.08
72892;BME280;61032;50.782;6.818;2023-09-19T04:55:32;100039.75;;;15.58;69.06
72892;BME280;61032;50.782;6.818;2023-09-19T04:56:33;100042.09;;;15.56;68.88
72892;BME280;61032;50.782;6.818;2023-09-19T04:57:33;100047.28;;;15.58;68.80
72892;BME280;61032;50.782;6.818;2023-09-19T04:58:34;100044.00;;;15.52;68.95
72892;BME280;61032;50.782;6.818;2023-09-19T04:59:34;100049.91;;;15.51;69.42
72892;BME280;61032;50.782;6.818;2023-09-19T05:00:34;100051.13;;;15.53;68.99
72892;BME280;61032;50.782;6.818;2023-09-19T05:01:35;100045.09;;;15.47;68.90
72892;BME280;61032;50.782;6.818;2023-09-19T05:02:35;100043.13;;;15.48;68.31
72892;BME280;61032;50.782;6.818;2023-09-19T05:03:36;100046.75;;;15.52;68.73
72892;BME280;61032;50.782;6.818;2023-09-19T05:04:36;100049.53;;;15.52;68.99
72892;BME280;61032;50.782;6.818;2023-09-19T05:05:37;100051.88;;;15.50;68.61
72892;BME280;61032;50.782;6.818;2023-09-19T05:06:38;100047.56;;;15.53;68.15
72892;BME280;61032;50.782;6.818;2023-09-19T05:07:39;100053.63;;;15.58;68.65
72892;BME280;61032;50.782;6.818;2023-09-19T05:08:40;100052.03;;;15.57;68.09
72892;BME280;61032;50.782;6.818;2023-09-19T05:09:41;100056.75;;;15.57;69.07
72892;BME280;61032;50.782;6.818;2023-09-19T05:10:42;100060.34;;;15.61;68.13
72892;BME280;61032;50.782;6.818;2023-09-19T05:11:42;100061.97;;;15.35;68.45
72892;BME280;61032;50.782;6.818;2023-09-19T05:12:43;100063.59;;;15.40;68.91
72892;BME280;61032;50.782;6.818;2023-09-19T05:13:45;100063.28;;;15.45;68.95
72892;BME280;61032;50.782;6.818;2023-09-19T05:14:46;100067.97;;;15.41;68.87
72892;BME280;61032;50.782;6.818;2023-09-19T05:15:46;100064.38;;;15.37;69.07
72892;BME280;61032;50.782;6.818;2023-09-19T05:16:46;100069.94;;;15.40;69.06
72892;BME280;61032;50.782;6.818;2023-09-19T05:17:51;100075.25;;;15.26;69.09
72892;BME280;61032;50.782;6.818;2023-09-19T05:18:54;100081.97;;;15.25;69.66
72892;BME280;61032;50.782;6.818;2023-09-19T05:19:55;100081.53;;;15.23;69.36
72892;BME280;61032;50.782;6.818;2023-09-19T05:20:55;100081.59;;;15.27;69.71
72892;BME280;61032;50.782;6.818;2023-09-19T05:21:56;100081.59;;;15.27;69.31
72892;BME280;61032;50.782;6.818;2023-09-19T05:23:06;100091.19;;;15.33;69.57
72892;BME280;61032;50.782;6.818;2023-09-19T05:24:11;100089.97;;;15.30;69.59
72892;BME280;61032;50.782;6.818;2023-09-19T05:25:12;100085.22;;;15.31;69.83
72892;BME280;61032;50.782;6.818;2023-09-19T05:26:17;100090.66;;;15.24;69.91
72892;BME280;61032;50.782;6.818;2023-09-19T05:27:18;100086.72;;;15.02;70.61
72892;BME280;61032;50.782;6.818;2023-09-19T05:28:20;100094.06;;;14.91;71.03
72892;BME280;61032;50.782;6.818;2023-09-19T05:29:21;100101.31;;;14.99;71.58
72892;BME280;61032;50.782;6.818;2023-09-19T05:30:21;100098.31;;;15.07;71.08
72892;BME280;61032;50.782;6.818;2023-09-19T05:31:22;100102.00;;;15.15;70.81
72892;BME280;61032;50.782;6.818;2023-09-19T05:32:23;100100.50;;;15.21;70.73
72892;BME280;61032;50.782;6.818;2023-09-19T05:33:23;100101.28;;;15.22;70.60
72892;BME280;61032;50.782;6.818;2023-09-19T05:34:24;100091.56;;;15.31;70.77
72892;BME280;61032;50.782;6.818;2023-09-19T05:35:28;100094.72;;;15.30;70.18
72892;BME280;61032;50.782;6.818;2023-09-19T05:36:28;100101.47;;;15.32;70.08
72892;BME280;61032;50.782;6.818;2023-09-19T05:37:29;100106.22;;;15.32;70.43
72892;BME280;61032;50.782;6.818;2023-09-19T05:38:30;100099.31;;;15.22;70.49
72892;BME280;61032;50.782;6.818;2023-09-19T05:39:31;100109.66;;;15.25;70.51
72892;BME280;61032;50.782;6.818;2023-09-19T05:40:31;100111.03;;;15.35;70.30